createdAt,value
2023-03-29T00:01:42.094Z,26.84
2023-03-29T00:04:10.168Z,26.96
2023-03-29T00:06:37.876Z,26.68
2023-03-29T00:09:06.035Z,26.89
2023-03-29T00:11:33.090Z,26.91
2023-03-29T00:14:01.336Z,26.84
2023-03-29T00:16:28.209Z,26.86
2023-03-29T00:18:55.419Z,27.03
2023-03-29T00:21:22.295Z,27.05
2023-03-29T00:23:49.098Z,27.15
2023-03-29T00:26:16.006Z,27.09
2023-03-29T00:28:42.804Z,27.03
2023-03-29T00:31:13.486Z,26.81
2023-03-29T00:33:41.484Z,27.05
2023-03-29T00:36:10.535Z,26.98
2023-03-29T00:38:38.145Z,26.58
2023-03-29T00:41:07.876Z,26.95
2023-03-29T00:43:56.622Z,26.97
2023-03-29T00:46:27.237Z,27.03
2023-03-29T00:48:57.907Z,26.74
2023-03-29T00:51:28.083Z,27.16
2023-03-29T00:53:59.052Z,27.13
2023-03-29T00:56:30.193Z,26.81
2023-03-29T00:59:02.264Z,27.05
2023-03-29T01:01:38.100Z,26.91
2023-03-29T01:04:09.863Z,27.01
2023-03-29T01:06:39.272Z,27.12
2023-03-29T01:09:10.355Z,27.08
2023-03-29T01:11:42.102Z,26.90
2023-03-29T01:14:15.347Z,26.95
2023-03-29T01:16:45.995Z,26.63
2023-03-29T01:19:19.082Z,26.97
2023-03-29T01:21:51.618Z,26.97
2023-03-29T01:24:42.044Z,27.26
2023-03-29T01:27:15.872Z,27.11
2023-03-29T01:29:48.958Z,27.08
2023-03-29T01:32:20.149Z,27.33
2023-03-29T01:34:51.840Z,27.01
2023-03-29T01:37:24.940Z,27.04
2023-03-29T01:39:52.779Z,26.93
2023-03-29T01:42:32.519Z,27.24
2023-03-29T01:45:10.203Z,27.10
2023-03-29T01:47:45.519Z,27.08
2023-03-29T01:50:17.740Z,27.08
2023-03-29T01:52:50.568Z,27.25
2023-03-29T01:55:23.069Z,27.19
2023-03-29T01:57:52.216Z,27.37
2023-03-29T02:00:24.869Z,27.20
2023-03-29T02:02:55.047Z,27.39
2023-03-29T02:05:24.537Z,27.56
2023-03-29T02:07:53.013Z,27.20
2023-03-29T02:10:21.685Z,27.44
2023-03-29T02:12:48.738Z,27.34
2023-03-29T02:15:21.527Z,27.32
2023-03-29T02:17:50.918Z,27.48
2023-03-29T02:20:22.545Z,27.23
2023-03-29T02:22:57.580Z,27.70
2023-03-29T02:25:26.047Z,27.62
2023-03-29T02:27:53.659Z,27.76
2023-03-29T02:30:21.409Z,27.68
2023-03-29T02:32:54.425Z,27.87
2023-03-29T02:35:27.862Z,27.83
2023-03-29T02:37:57.394Z,27.96
2023-03-29T02:40:26.145Z,27.93
2023-03-29T02:42:56.018Z,27.96
2023-03-29T02:45:25.637Z,27.94
2023-03-29T02:47:56.740Z,28.12
2023-03-29T02:50:25.638Z,28.00
2023-03-29T02:52:59.269Z,28.00
2023-03-29T02:55:34.631Z,28.29
2023-03-29T02:58:08.297Z,28.12
2023-03-29T03:00:38.350Z,28.45
2023-03-29T03:03:08.004Z,28.02
2023-03-29T03:05:36.079Z,28.11
2023-03-29T03:08:04.586Z,28.09
2023-03-29T03:10:33.265Z,28.13
2023-03-29T03:13:00.430Z,28.24
2023-03-29T03:15:31.117Z,28.25
2023-03-29T03:17:58.177Z,28.31
2023-03-29T03:20:26.621Z,28.46
2023-03-29T03:22:54.901Z,28.37
2023-03-29T03:25:21.799Z,28.37
2023-03-29T03:27:50.683Z,28.45
2023-03-29T03:30:21.049Z,28.45
2023-03-29T03:33:27.485Z,28.32
2023-03-29T03:36:29.154Z,28.64
2023-03-29T03:38:57.087Z,28.44
2023-03-29T03:41:26.158Z,28.47
2023-03-29T03:43:53.966Z,28.65
2023-03-29T03:46:21.678Z,28.29
2023-03-29T03:48:49.250Z,28.29
2023-03-29T03:51:21.472Z,28.51
2023-03-29T03:53:50.944Z,28.66
2023-03-29T03:56:35.766Z,28.70
2023-03-29T03:59:23.860Z,28.57
2023-03-29T04:02:00.497Z,28.47
2023-03-29T04:04:28.036Z,28.56
2023-03-29T04:07:13.080Z,28.23
2023-03-29T04:10:00.467Z,28.47
2023-03-29T04:12:40.098Z,28.81
2023-03-29T04:15:08.760Z,28.50
2023-03-29T04:17:36.920Z,28.78
2023-03-29T04:20:24.773Z,28.82
2023-03-29T04:22:52.028Z,28.76
2023-03-29T04:25:23.799Z,28.59
2023-03-29T04:28:16.526Z,28.90
2023-03-29T04:30:52.254Z,28.80
2023-03-29T04:33:29.402Z,28.70
2023-03-29T04:35:59.994Z,28.62
2023-03-29T04:38:26.984Z,28.82
2023-03-29T04:40:56.306Z,28.92
2023-03-29T04:43:40.371Z,28.74
2023-03-29T04:46:40.345Z,28.60
2023-03-29T04:49:26.262Z,28.69
2023-03-29T04:51:54.943Z,28.52
2023-03-29T04:54:26.387Z,28.73
2023-03-29T04:57:02.204Z,28.75
2023-03-29T04:59:37.353Z,28.65
2023-03-29T05:02:14.479Z,28.75
2023-03-29T05:04:46.834Z,28.60
2023-03-29T05:07:17.661Z,28.88
2023-03-29T05:09:45.116Z,28.60
2023-03-29T05:12:14.361Z,28.63
2023-03-29T05:15:01.424Z,28.56
2023-03-29T05:17:29.124Z,28.55
2023-03-29T05:20:07.172Z,28.38
2023-03-29T05:22:34.342Z,28.40
2023-03-29T05:25:01.130Z,28.61
2023-03-29T05:27:29.883Z,28.46
2023-03-29T05:30:09.016Z,28.60
2023-03-29T05:33:05.866Z,28.25
2023-03-29T05:35:36.017Z,28.19
2023-03-29T05:38:06.465Z,28.17
2023-03-29T05:40:35.782Z,28.00
2023-03-29T05:43:20.970Z,28.19
2023-03-29T05:45:48.747Z,28.00
2023-03-29T05:48:15.695Z,28.00
2023-03-29T05:50:46.930Z,28.03
2023-03-29T05:53:13.809Z,27.74
2023-03-29T05:55:42.441Z,27.90
2023-03-29T05:58:12.986Z,27.81
2023-03-29T06:00:42.913Z,27.86
2023-03-29T06:03:33.679Z,27.72
2023-03-29T06:06:03.869Z,27.78
2023-03-29T06:08:32.881Z,27.66
2023-03-29T06:11:16.707Z,27.65
2023-03-29T06:14:02.455Z,27.83
2023-03-29T06:16:31.120Z,28.29
2023-03-29T06:18:58.238Z,28.36
2023-03-29T06:21:27.232Z,28.25
2023-03-29T06:23:54.674Z,28.16
2023-03-29T06:26:22.382Z,28.11
2023-03-29T06:28:52.059Z,27.91
2023-03-29T06:31:21.106Z,28.02
2023-03-29T06:33:52.201Z,28.14
2023-03-29T06:36:35.020Z,28.20
2023-03-29T06:39:08.498Z,28.12
2023-03-29T06:42:20.194Z,28.16
2023-03-29T06:45:07.699Z,28.19
2023-03-29T06:47:36.558Z,28.16
2023-03-29T06:50:05.896Z,28.13
2023-03-29T06:53:02.923Z,27.92
2023-03-29T06:55:31.622Z,28.22
2023-03-29T06:58:05.624Z,27.80
2023-03-29T07:00:35.778Z,28.27
2023-03-29T07:03:13.593Z,28.13
2023-03-29T07:05:42.567Z,27.90
2023-03-29T07:08:15.377Z,28.09
2023-03-29T07:10:54.206Z,28.07
2023-03-29T07:13:21.103Z,27.81
2023-03-29T07:15:49.630Z,27.97
2023-03-29T07:18:22.119Z,28.01
2023-03-29T07:20:52.058Z,27.93
2023-03-29T07:23:19.457Z,28.06
2023-03-29T07:25:47.650Z,28.06
2023-03-29T07:28:14.676Z,27.95
2023-03-29T07:30:41.474Z,27.60
2023-03-29T07:33:12.638Z,27.84
2023-03-29T07:35:52.807Z,27.23
2023-03-29T07:38:20.546Z,27.83
2023-03-29T07:40:54.517Z,27.50
2023-03-29T07:43:44.883Z,27.86
2023-03-29T07:46:14.246Z,27.58
2023-03-29T07:48:41.393Z,27.86
2023-03-29T07:51:11.974Z,27.71
2023-03-29T07:53:50.018Z,27.42
2023-03-29T07:56:36.065Z,27.38
2023-03-29T07:59:11.914Z,27.41
2023-03-29T08:01:41.201Z,27.81
2023-03-29T08:04:31.261Z,27.51
2023-03-29T08:07:21.345Z,27.59
2023-03-29T08:09:54.222Z,27.66
2023-03-29T08:12:29.657Z,27.43
2023-03-29T08:14:58.030Z,27.54
2023-03-29T08:17:29.572Z,27.29
2023-03-29T08:19:58.058Z,27.56
2023-03-29T08:22:26.504Z,27.65
2023-03-29T08:25:07.017Z,27.55
2023-03-29T08:27:39.090Z,27.31
2023-03-29T08:30:09.557Z,27.24
2023-03-29T08:32:39.228Z,27.49
2023-03-29T08:35:09.728Z,27.58
2023-03-29T08:37:45.957Z,27.17
2023-03-29T08:40:21.523Z,27.43
2023-03-29T08:43:34.852Z,27.72
2023-03-29T08:46:35.908Z,27.42
2023-03-29T08:49:21.147Z,27.11
2023-03-29T08:51:53.136Z,27.71
2023-03-29T08:54:26.871Z,27.55
2023-03-29T08:57:22.063Z,27.68
2023-03-29T08:59:58.476Z,27.23
2023-03-29T09:02:27.817Z,27.53
2023-03-29T09:05:08.726Z,27.65
2023-03-29T09:07:44.503Z,27.35
2023-03-29T09:10:16.795Z,27.44
2023-03-29T09:12:58.669Z,27.87
2023-03-29T09:15:31.036Z,27.69
2023-03-29T09:18:32.941Z,27.41
2023-03-29T09:21:04.439Z,27.43
2023-03-29T09:23:49.137Z,27.50
2023-03-29T09:26:40.196Z,27.40
2023-03-29T09:29:37.476Z,27.35
2023-03-29T09:32:16.960Z,27.41
2023-03-29T09:34:47.743Z,27.82
2023-03-29T09:37:25.449Z,27.58
2023-03-29T09:39:53.323Z,27.54
2023-03-29T09:42:29.237Z,27.60
2023-03-29T09:45:08.388Z,27.59
2023-03-29T09:47:47.803Z,27.84
2023-03-29T09:50:30.056Z,27.69
2023-03-29T09:52:59.420Z,27.60
2023-03-29T09:55:31.305Z,27.79
2023-03-29T09:58:14.897Z,27.62
2023-03-29T10:00:46.188Z,27.66
2023-03-29T10:03:19.140Z,27.52
2023-03-29T10:05:54.575Z,27.38
2023-03-29T10:08:27.302Z,27.83
2023-03-29T10:10:58.405Z,27.89
2023-03-29T10:13:30.626Z,27.79
2023-03-29T10:16:02.334Z,27.89
2023-03-29T10:18:30.982Z,27.98
2023-03-29T10:21:03.725Z,27.99
2023-03-29T10:23:32.546Z,27.81
2023-03-29T10:26:00.609Z,27.63
2023-03-29T10:28:30.983Z,27.98
2023-03-29T10:30:59.892Z,27.96
2023-03-29T10:33:31.292Z,28.11
2023-03-29T10:35:58.386Z,27.88
2023-03-29T10:38:29.458Z,27.95
2023-03-29T10:41:04.821Z,28.10
2023-03-29T10:43:38.553Z,28.12
2023-03-29T10:46:08.899Z,28.41
2023-03-29T10:48:36.210Z,28.11
2023-03-29T10:51:06.024Z,27.99
2023-03-29T10:53:35.198Z,27.94
2023-03-29T10:56:23.016Z,28.29
2023-03-29T10:59:08.667Z,28.46
2023-03-29T11:01:44.852Z,28.30
2023-03-29T11:04:34.726Z,28.11
2023-03-29T11:07:22.760Z,28.12
2023-03-29T11:09:59.390Z,28.00
2023-03-29T11:12:34.393Z,28.00
2023-03-29T11:15:15.033Z,28.06
2023-03-29T11:17:55.498Z,28.25
2023-03-29T11:20:32.904Z,28.40
2023-03-29T11:23:09.857Z,28.46
2023-03-29T11:25:46.375Z,28.21
2023-03-29T11:28:21.327Z,28.65
2023-03-29T11:30:57.492Z,28.41
2023-03-29T11:33:37.532Z,28.23
2023-03-29T11:36:12.707Z,28.39
2023-03-29T11:38:48.214Z,28.53
2023-03-29T11:41:18.643Z,28.68
2023-03-29T11:43:49.899Z,28.28
2023-03-29T11:46:21.754Z,28.45
2023-03-29T11:48:53.908Z,28.33
2023-03-29T11:51:25.865Z,28.20
2023-03-29T11:54:01.793Z,28.54
2023-03-29T11:56:35.023Z,28.31
2023-03-29T11:59:07.538Z,28.47
2023-03-29T12:01:41.324Z,28.36
2023-03-29T12:04:14.955Z,28.40
2023-03-29T12:06:50.682Z,28.72
2023-03-29T12:09:27.586Z,28.61
2023-03-29T12:12:01.906Z,28.92
2023-03-29T12:14:38.251Z,29.12
2023-03-29T12:17:12.615Z,28.75
2023-03-29T12:19:44.572Z,28.91
2023-03-29T12:22:11.462Z,29.02
2023-03-29T12:24:44.115Z,28.97
2023-03-29T12:27:22.255Z,28.64
2023-03-29T12:30:08.676Z,28.87
2023-03-29T12:32:48.792Z,28.70
2023-03-29T12:35:59.009Z,29.27
2023-03-29T12:38:48.154Z,28.89
2023-03-29T12:41:37.546Z,28.98
2023-03-29T12:44:36.813Z,28.94
2023-03-29T12:47:20.418Z,28.83
2023-03-29T12:49:55.667Z,29.27
2023-03-29T12:52:27.341Z,29.28
2023-03-29T12:54:57.360Z,28.72
2023-03-29T12:57:28.162Z,29.04
2023-03-29T12:59:56.402Z,28.74
2023-03-29T13:02:35.272Z,29.06
2023-03-29T13:05:05.613Z,29.15
2023-03-29T13:07:47.169Z,29.23
2023-03-29T13:10:31.380Z,29.08
2023-03-29T13:13:11.232Z,29.17
2023-03-29T13:15:39.305Z,28.68
2023-03-29T13:18:20.431Z,29.15
2023-03-29T13:20:59.111Z,29.01
2023-03-29T13:23:36.438Z,29.15
2023-03-29T13:26:34.030Z,28.85
2023-03-29T13:29:17.514Z,29.15
2023-03-29T13:31:50.397Z,29.36
2023-03-29T13:34:31.322Z,29.11
2023-03-29T13:37:08.904Z,29.18
2023-03-29T13:39:36.984Z,28.92
2023-03-29T13:42:21.669Z,29.24
2023-03-29T13:44:51.491Z,29.21
2023-03-29T13:47:58.691Z,29.53
2023-03-29T13:50:37.122Z,29.48
2023-03-29T13:53:13.834Z,29.55
2023-03-29T13:55:48.126Z,29.62
2023-03-29T13:58:27.361Z,29.18
2023-03-29T14:01:00.554Z,29.33
2023-03-29T14:03:30.141Z,29.34
2023-03-29T14:06:00.508Z,29.26
2023-03-29T14:08:32.015Z,29.50
2023-03-29T14:11:02.251Z,29.11
2023-03-29T14:13:29.937Z,29.58
2023-03-29T14:16:02.975Z,29.38
2023-03-29T14:18:33.996Z,29.39
2023-03-29T14:21:01.879Z,29.18
2023-03-29T14:23:33.219Z,29.45
2023-03-29T14:26:05.872Z,29.53
2023-03-29T14:28:33.170Z,29.10
2023-03-29T14:30:59.960Z,29.14
2023-03-29T14:33:28.817Z,29.30
2023-03-29T14:35:57.197Z,29.41
2023-03-29T14:38:27.067Z,29.41
2023-03-29T14:41:00.154Z,29.54
2023-03-29T14:43:30.512Z,29.69
2023-03-29T14:45:57.703Z,29.41
2023-03-29T14:48:25.033Z,29.23
2023-03-29T14:50:52.483Z,29.19
2023-03-29T14:53:21.541Z,29.13
2023-03-29T14:55:51.734Z,29.43
2023-03-29T14:58:23.712Z,29.40
2023-03-29T15:00:51.869Z,29.38
2023-03-29T15:03:22.780Z,29.40
2023-03-29T15:05:54.031Z,29.80
2023-03-29T15:08:30.916Z,29.38
2023-03-29T15:10:58.270Z,29.60
2023-03-29T15:13:27.524Z,29.37
2023-03-29T15:15:59.146Z,29.34
2023-03-29T15:18:31.551Z,29.48
2023-03-29T15:20:59.090Z,29.52
2023-03-29T15:23:26.663Z,29.36
2023-03-29T15:25:57.054Z,29.74
2023-03-29T15:28:29.191Z,29.76
2023-03-29T15:31:07.885Z,29.82
2023-03-29T15:33:37.636Z,29.50
2023-03-29T15:36:06.818Z,29.77
2023-03-29T15:38:43.282Z,29.58
2023-03-29T15:41:13.572Z,29.95
2023-03-29T15:43:42.373Z,30.04
2023-03-29T15:46:11.476Z,29.76
2023-03-29T15:48:38.545Z,29.84
2023-03-29T15:51:06.897Z,29.62
2023-03-29T15:53:35.093Z,29.78
2023-03-29T15:56:05.436Z,29.64
2023-03-29T15:58:34.666Z,29.97
2023-03-29T16:01:13.261Z,29.57
2023-03-29T16:03:40.660Z,29.72
2023-03-29T16:06:10.717Z,29.87
2023-03-29T16:08:37.692Z,29.65
2023-03-29T16:11:06.786Z,29.47
2023-03-29T16:13:33.811Z,29.65
2023-03-29T16:16:00.841Z,29.69
2023-03-29T16:18:49.518Z,29.87
2023-03-29T16:21:18.761Z,29.78
2023-03-29T16:23:46.481Z,29.87
2023-03-29T16:26:14.819Z,29.94
2023-03-29T16:28:42.145Z,30.04
2023-03-29T16:31:10.975Z,30.04
2023-03-29T16:33:38.109Z,30.03
2023-03-29T16:36:08.042Z,30.06
2023-03-29T16:38:35.095Z,30.18
2023-03-29T16:41:02.661Z,30.47
2023-03-29T16:43:29.621Z,30.34
2023-03-29T16:45:57.046Z,30.02
2023-03-29T16:48:24.024Z,29.93
2023-03-29T16:50:51.340Z,30.04
2023-03-29T16:53:19.942Z,30.05
2023-03-29T16:55:47.254Z,29.97
2023-03-29T16:58:15.586Z,30.22
2023-03-29T17:00:44.429Z,30.10
2023-03-29T17:03:13.579Z,30.23
2023-03-29T17:05:42.540Z,29.97
2023-03-29T17:08:10.242Z,30.06
2023-03-29T17:10:39.608Z,30.23
2023-03-29T17:13:06.879Z,30.07
2023-03-29T17:15:34.820Z,30.25
2023-03-29T17:18:02.944Z,30.32
2023-03-29T17:20:30.057Z,30.06
2023-03-29T17:22:56.792Z,30.28
2023-03-29T17:25:24.967Z,30.12
2023-03-29T17:27:54.084Z,29.96
2023-03-29T17:30:21.197Z,29.86
2023-03-29T17:32:48.424Z,29.87
2023-03-29T17:35:16.034Z,30.11
2023-03-29T17:37:43.046Z,30.31
2023-03-29T17:40:14.343Z,30.51
2023-03-29T17:42:42.171Z,30.42
2023-03-29T17:45:11.519Z,30.23
2023-03-29T17:47:39.048Z,30.49
2023-03-29T17:50:07.641Z,30.17
2023-03-29T17:52:35.982Z,30.09
2023-03-29T17:55:03.234Z,29.96
2023-03-29T17:57:30.494Z,30.00
2023-03-29T17:59:57.278Z,30.17
2023-03-29T18:02:25.778Z,30.22
2023-03-29T18:04:52.868Z,30.08
2023-03-29T18:07:19.820Z,29.81
2023-03-29T18:09:46.759Z,29.76
2023-03-29T18:12:13.824Z,30.00
2023-03-29T18:14:40.765Z,30.30
2023-03-29T18:17:07.612Z,30.02
2023-03-29T18:19:36.358Z,29.99
2023-03-29T18:22:04.133Z,29.67
2023-03-29T18:24:31.272Z,29.66
2023-03-29T18:26:58.073Z,29.58
2023-03-29T18:32:12.232Z,29.45
2023-03-29T18:34:40.460Z,29.55
2023-03-29T18:37:27.429Z,29.45
2023-03-29T18:39:54.767Z,29.38
2023-03-29T18:42:21.931Z,29.47
2023-03-29T18:44:49.324Z,29.58
2023-03-29T18:47:18.229Z,29.72
2023-03-29T18:49:47.304Z,29.85
2023-03-29T18:52:34.412Z,29.65
2023-03-29T18:55:01.467Z,29.75
2023-03-29T18:57:28.339Z,29.80
2023-03-29T18:59:55.483Z,30.03
2023-03-29T19:02:22.331Z,29.88
2023-03-29T19:04:50.877Z,29.58
2023-03-29T19:07:17.974Z,29.95
2023-03-29T19:09:46.016Z,29.84
2023-03-29T19:12:12.822Z,30.03
2023-03-29T19:14:39.947Z,29.92
2023-03-29T19:17:06.755Z,29.88
2023-03-29T19:19:33.705Z,29.52
2023-03-29T19:22:02.205Z,29.59
2023-03-29T19:24:29.171Z,29.74
2023-03-29T19:26:56.683Z,29.51
2023-03-29T19:29:23.514Z,29.62
2023-03-29T19:31:51.930Z,29.43
2023-03-29T19:34:21.281Z,29.27
2023-03-29T19:36:48.383Z,29.53
2023-03-29T19:39:16.811Z,29.67
2023-03-29T19:41:43.897Z,29.43
2023-03-29T19:44:11.042Z,29.54
2023-03-29T19:46:39.003Z,29.34
2023-03-29T19:49:06.214Z,29.60
2023-03-29T19:51:32.971Z,29.51
2023-03-29T19:54:01.604Z,29.48
2023-03-29T19:56:30.503Z,29.57
2023-03-29T19:58:57.285Z,29.62
2023-03-29T20:01:27.103Z,29.64
2023-03-29T20:03:55.430Z,29.54
2023-03-29T20:06:22.296Z,29.91
2023-03-29T20:08:51.456Z,30.23
2023-03-29T20:11:23.657Z,30.21
2023-03-29T20:13:52.261Z,30.40
2023-03-29T20:16:19.620Z,30.28
2023-03-29T20:18:46.722Z,30.31
2023-03-29T20:21:17.482Z,30.38
2023-03-29T20:23:44.634Z,30.15
2023-03-29T20:26:11.667Z,29.92
2023-03-29T20:28:38.881Z,30.17
2023-03-29T20:31:11.016Z,30.20
2023-03-29T20:36:26.841Z,29.99
2023-03-29T20:38:56.205Z,30.02
2023-03-29T20:41:23.225Z,29.92
2023-03-29T20:43:58.358Z,30.10
2023-03-29T20:46:33.763Z,30.01
2023-03-29T20:49:01.286Z,29.90
2023-03-29T20:51:30.365Z,30.25
2023-03-29T20:54:04.772Z,30.00
2023-03-29T20:56:33.891Z,30.10
2023-03-29T20:59:01.072Z,30.45
2023-03-29T21:01:30.206Z,30.74
2023-03-29T21:03:57.179Z,30.56
2023-03-29T21:06:24.392Z,30.63
2023-03-29T21:08:52.561Z,30.54
2023-03-29T21:11:20.253Z,30.30
2023-03-29T21:13:47.408Z,30.42
2023-03-29T21:16:14.480Z,30.29
2023-03-29T21:18:43.394Z,30.62
2023-03-29T21:21:11.609Z,30.49
2023-03-29T21:23:39.482Z,30.35
2023-03-29T21:26:07.826Z,30.52
2023-03-29T21:28:34.972Z,30.57
2023-03-29T21:31:04.675Z,30.58
2023-03-29T21:33:31.992Z,30.56
2023-03-29T21:36:00.874Z,30.69
2023-03-29T21:38:28.659Z,30.53
2023-03-29T21:40:55.503Z,30.58
2023-03-29T21:43:22.471Z,30.71
2023-03-29T21:45:50.320Z,30.64
2023-03-29T21:48:17.663Z,30.83
2023-03-29T21:50:47.993Z,30.83
2023-03-29T21:53:16.246Z,30.91
2023-03-29T21:55:43.036Z,30.78
2023-03-29T21:58:09.922Z,30.99
2023-03-29T22:00:36.839Z,30.84
2023-03-29T22:03:04.100Z,30.83
2023-03-29T22:05:31.210Z,30.99
2023-03-29T22:07:58.708Z,30.85
2023-03-29T22:10:27.357Z,30.90
2023-03-29T22:12:54.271Z,30.86
2023-03-29T22:15:21.050Z,30.98
2023-03-29T22:17:48.526Z,30.90
2023-03-29T22:20:15.764Z,30.70
2023-03-29T22:22:45.236Z,30.93
2023-03-29T22:25:12.718Z,30.71
2023-03-29T22:27:42.518Z,31.20
2023-03-29T22:30:10.930Z,30.99
2023-03-29T22:32:37.820Z,30.82
2023-03-29T22:35:06.394Z,31.12
2023-03-29T22:37:33.363Z,31.03
2023-03-29T22:40:00.220Z,30.89
2023-03-29T22:42:27.022Z,30.98
2023-03-29T22:44:55.425Z,31.10
2023-03-29T22:47:22.313Z,31.09
2023-03-29T22:49:49.176Z,31.13
2023-03-29T22:52:16.169Z,31.22
2023-03-29T22:54:42.982Z,31.13
2023-03-29T22:57:09.828Z,31.16
2023-03-29T22:59:36.738Z,31.09
2023-03-29T23:02:05.141Z,31.23
2023-03-29T23:04:32.269Z,31.14
2023-03-29T23:07:00.245Z,31.08
2023-03-29T23:09:27.013Z,31.17
2023-03-29T23:11:53.878Z,31.08
2023-03-29T23:14:20.661Z,31.23
2023-03-29T23:16:47.489Z,31.21
2023-03-29T23:19:15.861Z,31.37
2023-03-29T23:21:42.644Z,31.41
2023-03-29T23:24:09.445Z,31.26
2023-03-29T23:26:37.604Z,31.38
2023-03-29T23:29:04.495Z,31.28
2023-03-29T23:31:33.758Z,31.59
2023-03-29T23:34:00.740Z,31.47
2023-03-29T23:36:31.485Z,31.41
2023-03-29T23:38:59.618Z,31.33
2023-03-29T23:41:30.623Z,31.27
2023-03-29T23:43:57.861Z,31.38
2023-03-29T23:46:27.502Z,31.53
2023-03-29T23:48:54.615Z,31.54
2023-03-29T23:51:28.976Z,31.45
2023-03-29T23:53:57.482Z,31.61
2023-03-29T23:56:24.483Z,31.58
2023-03-29T23:58:51.785Z,31.55
